KAVL/AVL METAR and TAF weather

Enter ICAO airport designator
Station Type Date Time Source
KAVL METAR 2020/09/26 10:21 UTC NOAA

KAVL 261021Z AUTO 34005KT 7SM BKN003 OVC008 16/16 A3005 RMK AO2 T01560156


Station Type Date Time Source
KAVL Decoded METAR 2020/09/26 10:21 UTC NOAA

ASHEVILLE REGIONAL AIRPORT, NC, United States (KAVL) 35-26N 82-32W 670M
Sep 26, 2020 - 06:21 AM EDT / 2020.09.26 1021 UTC
Wind: from the NNW (340 degrees) at 6 MPH (5 KT):0
Visibility: 7 mile(s):0
Sky conditions: overcast
Temperature: 60.1 F (15.6 C)
Dew Point: 60.1 F (15.6 C)
Relative Humidity: 100%
Pressure (altimeter): 30.05 in. Hg (1017 hPa)
ob: KAVL 261021Z AUTO 34005KT 7SM BKN003 OVC008 16/16 A3005 RMK AO2 T01560156
cycle: 10

Station Type Date Time Source
KAVL TAF 2020/09/26 07:12 UTC NOAA

TAF
AMD KAVL 260710Z 2607/2706 00000KT 3SM BR OVC002
FM261200 33003KT 1/2SM FG OVC003
FM261300 33004KT 3SM BR OVC005
FM261600 34003KT P6SM BKN020
FM261700 16004KT P6SM SCT020 SCT040
FM270400 VRB02KT 5SM BR BKN004

Example: see airport list